sensor_id;sensor_type;location;lat;lon;timestamp;pressure;altitude;pressure_sealevel;temperature
62611;BMP280;48683;48.084;17.272;2022-08-05T00:00:58;100185.28;;;21.90
62611;BMP280;48683;48.084;17.272;2022-08-05T00:03:24;100195.38;;;22.08
62611;BMP280;48683;48.084;17.272;2022-08-05T00:05:49;100192.94;;;22.10
62611;BMP280;48683;48.084;17.272;2022-08-05T00:08:14;100182.22;;;21.97
62611;BMP280;48683;48.084;17.272;2022-08-05T00:10:40;100194.38;;;21.96
62611;BMP280;48683;48.084;17.272;2022-08-05T00:13:05;100194.03;;;22.03
62611;BMP280;48683;48.084;17.272;2022-08-05T00:15:30;100185.59;;;21.92
62611;BMP280;48683;48.084;17.272;2022-08-05T00:17:56;100191.03;;;21.83
62611;BMP280;48683;48.084;17.272;2022-08-05T00:20:21;100190.47;;;21.79
62611;BMP280;48683;48.084;17.272;2022-08-05T00:22:47;100182.41;;;21.85
62611;BMP280;48683;48.084;17.272;2022-08-05T00:25:12;100200.41;;;22.00
62611;BMP280;48683;48.084;17.272;2022-08-05T00:27:37;100201.94;;;22.01
62611;BMP280;48683;48.084;17.272;2022-08-05T00:30:04;100183.16;;;21.85
62611;BMP280;48683;48.084;17.272;2022-08-05T00:32:29;100183.16;;;21.85
62611;BMP280;48683;48.084;17.272;2022-08-05T00:34:54;100193.03;;;21.83
62611;BMP280;48683;48.084;17.272;2022-08-05T00:37:20;100183.34;;;21.72
62611;BMP280;48683;48.084;17.272;2022-08-05T00:39:45;100189.44;;;21.67
62611;BMP280;48683;48.084;17.272;2022-08-05T00:42:11;100181.16;;;21.53
62611;BMP280;48683;48.084;17.272;2022-08-05T00:44:36;100185.09;;;21.52
62611;BMP280;48683;48.084;17.272;2022-08-05T00:47:01;100181.75;;;21.57
62611;BMP280;48683;48.084;17.272;2022-08-05T00:49:27;100187.53;;;21.59
62611;BMP280;48683;48.084;17.272;2022-08-05T00:51:52;100184.47;;;21.57
62611;BMP280;48683;48.084;17.272;2022-08-05T00:54:18;100187.22;;;21.48
62611;BMP280;48683;48.084;17.272;2022-08-05T00:56:43;100185.00;;;21.37
62611;BMP280;48683;48.084;17.272;2022-08-05T00:59:08;100174.22;;;21.34
62611;BMP280;48683;48.084;17.272;2022-08-05T01:01:34;100178.66;;;21.31
62611;BMP280;48683;48.084;17.272;2022-08-05T01:04:00;100171.50;;;21.24
62611;BMP280;48683;48.084;17.272;2022-08-05T01:06:25;100179.41;;;21.22
62611;BMP280;48683;48.084;17.272;2022-08-05T01:08:51;100168.34;;;21.17
62611;BMP280;48683;48.084;17.272;2022-08-05T01:11:32;100170.16;;;21.11
62611;BMP280;48683;48.084;17.272;2022-08-05T01:16:29;100161.97;;;21.02
62611;BMP280;48683;48.084;17.272;2022-08-05T01:18:59;100170.75;;;21.06
62611;BMP280;48683;48.084;17.272;2022-08-05T01:29:44;100155.94;;;20.52
62611;BMP280;48683;48.084;17.272;2022-08-05T01:32:16;100165.81;;;20.50
62611;BMP280;48683;48.084;17.272;2022-08-05T01:34:55;100159.88;;;20.33
62611;BMP280;48683;48.084;17.272;2022-08-05T01:37:43;100160.16;;;20.35
62611;BMP280;48683;48.084;17.272;2022-08-05T01:40:09;100159.53;;;20.22
62611;BMP280;48683;48.084;17.272;2022-08-05T01:42:37;100169.50;;;20.25
62611;BMP280;48683;48.084;17.272;2022-08-05T01:45:04;100166.03;;;20.24
62611;BMP280;48683;48.084;17.272;2022-08-05T01:47:31;100163.44;;;20.21
62611;BMP280;48683;48.084;17.272;2022-08-05T01:49:59;100170.09;;;20.20
62611;BMP280;48683;48.084;17.272;2022-08-05T01:52:26;100159.50;;;20.13
62611;BMP280;48683;48.084;17.272;2022-08-05T01:54:56;100168.47;;;20.22
62611;BMP280;48683;48.084;17.272;2022-08-05T01:57:30;100161.91;;;20.11
62611;BMP280;48683;48.084;17.272;2022-08-05T02:00:01;100162.50;;;20.06
62611;BMP280;48683;48.084;17.272;2022-08-05T02:02:30;100162.19;;;19.95
62611;BMP280;48683;48.084;17.272;2022-08-05T02:05:00;100152.16;;;19.82
62611;BMP280;48683;48.084;17.272;2022-08-05T02:07:29;100158.50;;;19.79
62611;BMP280;48683;48.084;17.272;2022-08-05T02:09:55;100163.81;;;19.83
62611;BMP280;48683;48.084;17.272;2022-08-05T02:12:26;100167.91;;;19.87
62611;BMP280;48683;48.084;17.272;2022-08-05T02:17:44;100162.28;;;19.82
62611;BMP280;48683;48.084;17.272;2022-08-05T02:20:18;100169.09;;;19.86
62611;BMP280;48683;48.084;17.272;2022-08-05T02:22:46;100168.78;;;19.84
62611;BMP280;48683;48.084;17.272;2022-08-05T02:25:24;100168.50;;;19.82
62611;BMP280;48683;48.084;17.272;2022-08-05T02:27:50;100161.97;;;19.80
62611;BMP280;48683;48.084;17.272;2022-08-05T02:30:16;100165.00;;;19.82
62611;BMP280;48683;48.084;17.272;2022-08-05T02:32:49;100163.63;;;19.77
62611;BMP280;48683;48.084;17.272;2022-08-05T02:35:18;100174.13;;;19.97
62611;BMP280;48683;48.084;17.272;2022-08-05T02:37:45;100167.66;;;20.04
62611;BMP280;48683;48.084;17.272;2022-08-05T02:40:11;100167.66;;;20.04
62611;BMP280;48683;48.084;17.272;2022-08-05T02:42:38;100165.41;;;20.11
62611;BMP280;48683;48.084;17.272;2022-08-05T02:45:06;100161.59;;;20.00
62611;BMP280;48683;48.084;17.272;2022-08-05T02:47:34;100162.41;;;20.18
62611;BMP280;48683;48.084;17.272;2022-08-05T02:50:01;100158.44;;;20.10
62611;BMP280;48683;48.084;17.272;2022-08-05T02:52:27;100157.69;;;20.10
62611;BMP280;48683;48.084;17.272;2022-08-05T02:54:54;100159.63;;;20.09
62611;BMP280;48683;48.084;17.272;2022-08-05T02:57:20;100152.47;;;19.94
62611;BMP280;48683;48.084;17.272;2022-08-05T02:59:48;100146.56;;;19.86
62611;BMP280;48683;48.084;17.272;2022-08-05T03:02:17;100143.34;;;19.78
62611;BMP280;48683;48.084;17.272;2022-08-05T03:04:44;100145.56;;;19.62
62611;BMP280;48683;48.084;17.272;2022-08-05T03:07:10;100148.13;;;19.65
62611;BMP280;48683;48.084;17.272;2022-08-05T03:09:37;100141.16;;;19.55
62611;BMP280;48683;48.084;17.272;2022-08-05T03:12:04;100148.06;;;19.47
62611;BMP280;48683;48.084;17.272;2022-08-05T03:14:29;100150.50;;;19.45
62611;BMP280;48683;48.084;17.272;2022-08-05T03:16:55;100151.16;;;19.36
62611;BMP280;48683;48.084;17.272;2022-08-05T03:19:20;100152.63;;;19.28
62611;BMP280;48683;48.084;17.272;2022-08-05T03:21:45;100157.88;;;19.23
62611;BMP280;48683;48.084;17.272;2022-08-05T03:24:11;100156.69;;;19.24
62611;BMP280;48683;48.084;17.272;2022-08-05T03:26:37;100162.34;;;19.38
62611;BMP280;48683;48.084;17.272;2022-08-05T03:29:02;100161.91;;;19.40
62611;BMP280;48683;48.084;17.272;2022-08-05T03:31:29;100155.94;;;19.45
62611;BMP280;48683;48.084;17.272;2022-08-05T03:33:56;100153.09;;;19.49
62611;BMP280;48683;48.084;17.272;2022-08-05T03:36:21;100155.19;;;19.54
62611;BMP280;48683;48.084;17.272;2022-08-05T03:38:47;100151.38;;;19.42
62611;BMP280;48683;48.084;17.272;2022-08-05T03:41:14;100155.16;;;19.45
62611;BMP280;48683;48.084;17.272;2022-08-05T03:43:40;100147.66;;;19.58
62611;BMP280;48683;48.084;17.272;2022-08-05T03:46:06;100152.88;;;19.43
62611;BMP280;48683;48.084;17.272;2022-08-05T03:48:31;100155.53;;;19.34
62611;BMP280;48683;48.084;17.272;2022-08-05T03:51:11;100153.59;;;19.13
62611;BMP280;48683;48.084;17.272;2022-08-05T03:53:49;100148.72;;;19.08
62611;BMP280;48683;48.084;17.272;2022-08-05T03:56:38;100164.72;;;19.27
62611;BMP280;48683;48.084;17.272;2022-08-05T03:59:08;100160.97;;;19.34
62611;BMP280;48683;48.084;17.272;2022-08-05T04:01:36;100161.56;;;19.29
62611;BMP280;48683;48.084;17.272;2022-08-05T04:04:03;100168.06;;;19.31
62611;BMP280;48683;48.084;17.272;2022-08-05T04:06:30;100160.94;;;19.25
62611;BMP280;48683;48.084;17.272;2022-08-05T04:08:57;100152.56;;;19.19
62611;BMP280;48683;48.084;17.272;2022-08-05T04:11:23;100158.72;;;19.11
62611;BMP280;48683;48.084;17.272;2022-08-05T04:13:49;100168.09;;;19.10
62611;BMP280;48683;48.084;17.272;2022-08-05T04:16:15;100160.38;;;19.08
62611;BMP280;48683;48.084;17.272;2022-08-05T04:18:43;100164.66;;;19.18
62611;BMP280;48683;48.084;17.272;2022-08-05T04:21:10;100165.63;;;19.24
62611;BMP280;48683;48.084;17.272;2022-08-05T04:23:35;100168.41;;;19.33
62611;BMP280;48683;48.084;17.272;2022-08-05T04:26:02;100160.47;;;19.48
62611;BMP280;48683;48.084;17.272;2022-08-05T04:28:27;100172.50;;;19.69
62611;BMP280;48683;48.084;17.272;2022-08-05T04:30:53;100163.03;;;19.82
62611;BMP280;48683;48.084;17.272;2022-08-05T04:33:18;100163.38;;;19.94
62611;BMP280;48683;48.084;17.272;2022-08-05T04:35:43;100156.16;;;20.00
62611;BMP280;48683;48.084;17.272;2022-08-05T04:38:09;100156.91;;;20.09
62611;BMP280;48683;48.084;17.272;2022-08-05T04:40:35;100156.66;;;20.25
62611;BMP280;48683;48.084;17.272;2022-08-05T04:43:01;100159.13;;;20.42
62611;BMP280;48683;48.084;17.272;2022-08-05T04:45:26;100160.63;;;20.52
62611;BMP280;48683;48.084;17.272;2022-08-05T04:47:52;100163.22;;;20.64
62611;BMP280;48683;48.084;17.272;2022-08-05T04:50:17;100151.09;;;20.74
62611;BMP280;48683;48.084;17.272;2022-08-05T04:52:43;100166.53;;;20.96
62611;BMP280;48683;48.084;17.272;2022-08-05T04:55:09;100164.56;;;21.14
62611;BMP280;48683;48.084;17.272;2022-08-05T04:57:35;100164.69;;;21.29
62611;BMP280;48683;48.084;17.272;2022-08-05T05:00:01;100162.69;;;21.39
62611;BMP280;48683;48.084;17.272;2022-08-05T05:02:26;100150.25;;;21.47
62611;BMP280;48683;48.084;17.272;2022-08-05T05:04:51;100161.53;;;21.63
62611;BMP280;48683;48.084;17.272;2022-08-05T05:07:17;100147.69;;;21.76
62611;BMP280;48683;48.084;17.272;2022-08-05T05:09:43;100152.53;;;21.81
62611;BMP280;48683;48.084;17.272;2022-08-05T05:12:09;100152.53;;;21.81
62611;BMP280;48683;48.084;17.272;2022-08-05T05:14:34;100148.31;;;22.04
62611;BMP280;48683;48.084;17.272;2022-08-05T05:17:00;100145.19;;;22.20
62611;BMP280;48683;48.084;17.272;2022-08-05T05:19:25;100147.16;;;22.19
62611;BMP280;48683;48.084;17.272;2022-08-05T05:21:51;100149.25;;;22.24
62611;BMP280;48683;48.084;17.272;2022-08-05T05:24:16;100145.41;;;22.31
62611;BMP280;48683;48.084;17.272;2022-08-05T05:26:42;100151.59;;;22.41
62611;BMP280;48683;48.084;17.272;2022-08-05T05:29:07;100138.09;;;22.37
62611;BMP280;48683;48.084;17.272;2022-08-05T05:31:32;100140.94;;;22.57
62611;BMP280;48683;48.084;17.272;2022-08-05T05:33:58;100143.50;;;22.61
62611;BMP280;48683;48.084;17.272;2022-08-05T05:36:24;100139.38;;;22.65
62611;BMP280;48683;48.084;17.272;2022-08-05T05:38:49;100139.66;;;22.67
62611;BMP280;48683;48.084;17.272;2022-08-05T05:41:15;100148.31;;;22.90
62611;BMP280;48683;48.084;17.272;2022-08-05T05:43:40;100144.25;;;23.00
62611;BMP280;48683;48.084;17.272;2022-08-05T05:46:06;100140.97;;;23.10
62611;BMP280;48683;48.084;17.272;2022-08-05T05:48:31;100143.41;;;23.23
62611;BMP280;48683;48.084;17.272;2022-08-05T05:50:57;100131.88;;;23.34
62611;BMP280;48683;48.084;17.272;2022-08-05T05:53:22;100137.84;;;23.47
62611;BMP280;48683;48.084;17.272;2022-08-05T05:55:48;100137.06;;;23.61
62611;BMP280;48683;48.084;17.272;2022-08-05T05:58:13;100136.47;;;23.72
62611;BMP280;48683;48.084;17.272;2022-08-05T06:00:39;100131.75;;;23.72
62611;BMP280;48683;48.084;17.272;2022-08-05T06:03:04;100146.03;;;23.96
62611;BMP280;48683;48.084;17.272;2022-08-05T06:05:29;100146.25;;;24.13
62611;BMP280;48683;48.084;17.272;2022-08-05T06:07:55;100137.16;;;24.22
62611;BMP280;48683;48.084;17.272;2022-08-05T06:10:20;100144.50;;;24.30
62611;BMP280;48683;48.084;17.272;2022-08-05T06:12:45;100136.31;;;24.56
62611;BMP280;48683;48.084;17.272;2022-08-05T06:15:11;100134.13;;;24.60
62611;BMP280;48683;48.084;17.272;2022-08-05T06:17:36;100134.22;;;24.71
62611;BMP280;48683;48.084;17.272;2022-08-05T06:20:03;100130.72;;;24.91
62611;BMP280;48683;48.084;17.272;2022-08-05T06:22:31;100136.66;;;25.10
62611;BMP280;48683;48.084;17.272;2022-08-05T06:24:57;100137.25;;;25.25
62611;BMP280;48683;48.084;17.272;2022-08-05T06:27:22;100138.53;;;25.29
62611;BMP280;48683;48.084;17.272;2022-08-05T06:29:48;100139.13;;;25.39
62611;BMP280;48683;48.084;17.272;2022-08-05T06:32:13;100132.03;;;25.27
62611;BMP280;48683;48.084;17.272;2022-08-05T06:34:39;100127.69;;;25.46
62611;BMP280;48683;48.084;17.272;2022-08-05T06:37:05;100142.78;;;25.62
62611;BMP280;48683;48.084;17.272;2022-08-05T06:39:30;100122.28;;;25.57
62611;BMP280;48683;48.084;17.272;2022-08-05T06:41:57;100137.47;;;25.89
62611;BMP280;48683;48.084;17.272;2022-08-05T06:44:22;100131.28;;;26.00
62611;BMP280;48683;48.084;17.272;2022-08-05T06:46:47;100136.91;;;26.22
62611;BMP280;48683;48.084;17.272;2022-08-05T06:49:16;100124.97;;;26.36
62611;BMP280;48683;48.084;17.272;2022-08-05T06:51:41;100132.50;;;26.47
62611;BMP280;48683;48.084;17.272;2022-08-05T06:54:07;100128.00;;;26.50
62611;BMP280;48683;48.084;17.272;2022-08-05T06:56:32;100135.53;;;26.66
62611;BMP280;48683;48.084;17.272;2022-08-05T06:58:57;100127.06;;;26.80
62611;BMP280;48683;48.084;17.272;2022-08-05T07:01:23;100124.81;;;26.79
62611;BMP280;48683;48.084;17.272;2022-08-05T07:03:48;100123.09;;;26.98
62611;BMP280;48683;48.084;17.272;2022-08-05T07:06:14;100121.59;;;26.92
62611;BMP280;48683;48.084;17.272;2022-08-05T07:08:40;100112.56;;;26.97
62611;BMP280;48683;48.084;17.272;2022-08-05T07:11:06;100114.34;;;27.16
62611;BMP280;48683;48.084;17.272;2022-08-05T07:13:33;100113.84;;;27.23
62611;BMP280;48683;48.084;17.272;2022-08-05T07:16:17;100114.34;;;27.38
62611;BMP280;48683;48.084;17.272;2022-08-05T07:19:00;100108.34;;;27.34
62611;BMP280;48683;48.084;17.272;2022-08-05T07:21:26;100108.09;;;27.49
62611;BMP280;48683;48.084;17.272;2022-08-05T07:23:51;100110.09;;;27.54
62611;BMP280;48683;48.084;17.272;2022-08-05T07:26:16;100108.78;;;27.72
62611;BMP280;48683;48.084;17.272;2022-08-05T07:28:42;100104.25;;;27.74
62611;BMP280;48683;48.084;17.272;2022-08-05T07:31:08;100097.00;;;27.71
62611;BMP280;48683;48.084;17.272;2022-08-05T07:33:34;100102.47;;;27.94
62611;BMP280;48683;48.084;17.272;2022-08-05T07:35:59;100097.16;;;28.01
62611;BMP280;48683;48.084;17.272;2022-08-05T07:38:25;100107.44;;;28.12
62611;BMP280;48683;48.084;17.272;2022-08-05T07:40:50;100097.91;;;28.13
62611;BMP280;48683;48.084;17.272;2022-08-05T07:43:16;100105.16;;;28.16
62611;BMP280;48683;48.084;17.272;2022-08-05T07:45:42;100103.38;;;28.18
62611;BMP280;48683;48.084;17.272;2022-08-05T07:48:09;100107.03;;;28.43
62611;BMP280;48683;48.084;17.272;2022-08-05T07:50:34;100104.94;;;28.55
62611;BMP280;48683;48.084;17.272;2022-08-05T07:53:00;100096.59;;;28.66
62611;BMP280;48683;48.084;17.272;2022-08-05T07:55:26;100100.81;;;28.78
62611;BMP280;48683;48.084;17.272;2022-08-05T07:57:51;100107.50;;;28.88
62611;BMP280;48683;48.084;17.272;2022-08-05T08:00:17;100108.13;;;29.05
62611;BMP280;48683;48.084;17.272;2022-08-05T08:02:42;100097.00;;;29.11
62611;BMP280;48683;48.084;17.272;2022-08-05T08:05:09;100102.69;;;29.24
62611;BMP280;48683;48.084;17.272;2022-08-05T08:07:34;100096.91;;;29.28
62611;BMP280;48683;48.084;17.272;2022-08-05T08:10:00;100099.69;;;29.52
62611;BMP280;48683;48.084;17.272;2022-08-05T08:12:25;100098.13;;;29.56
62611;BMP280;48683;48.084;17.272;2022-08-05T08:14:51;100092.38;;;29.54
62611;BMP280;48683;48.084;17.272;2022-08-05T08:17:16;100100.19;;;29.75
62611;BMP280;48683;48.084;17.272;2022-08-05T08:19:43;100093.03;;;29.85
62611;BMP280;48683;48.084;17.272;2022-08-05T08:22:09;100083.75;;;29.82
62611;BMP280;48683;48.084;17.272;2022-08-05T08:24:35;100083.00;;;29.87
62611;BMP280;48683;48.084;17.272;2022-08-05T08:27:01;100079.72;;;30.07
62611;BMP280;48683;48.084;17.272;2022-08-05T08:29:27;100081.50;;;30.05
62611;BMP280;48683;48.084;17.272;2022-08-05T08:31:52;100074.84;;;30.13
62611;BMP280;48683;48.084;17.272;2022-08-05T08:34:20;100075.38;;;30.31
62611;BMP280;48683;48.084;17.272;2022-08-05T08:36:46;100073.78;;;30.35
62611;BMP280;48683;48.084;17.272;2022-08-05T08:39:11;100073.41;;;30.63
62611;BMP280;48683;48.084;17.272;2022-08-05T08:41:39;100078.13;;;30.68
62611;BMP280;48683;48.084;17.272;2022-08-05T08:44:07;100063.25;;;30.84
62611;BMP280;48683;48.084;17.272;2022-08-05T08:46:33;100065.34;;;30.97
62611;BMP280;48683;48.084;17.272;2022-08-05T08:49:01;100064.00;;;31.17
62611;BMP280;48683;48.084;17.272;2022-08-05T08:51:32;100059.94;;;31.18
62611;BMP280;48683;48.084;17.272;2022-08-05T08:53:58;100065.03;;;31.00
62611;BMP280;48683;48.084;17.272;2022-08-05T08:56:24;100065.84;;;30.95
62611;BMP280;48683;48.084;17.272;2022-08-05T08:58:50;100069.88;;;31.26
62611;BMP280;48683;48.084;17.272;2022-08-05T09:01:16;100049.91;;;31.15
62611;BMP280;48683;48.084;17.272;2022-08-05T09:03:47;100056.47;;;31.43
62611;BMP280;48683;48.084;17.272;2022-08-05T09:06:13;100050.41;;;31.58
62611;BMP280;48683;48.084;17.272;2022-08-05T09:08:38;100050.16;;;31.56
62611;BMP280;48683;48.084;17.272;2022-08-05T09:11:04;100053.16;;;31.71
62611;BMP280;48683;48.084;17.272;2022-08-05T09:13:30;100034.16;;;31.75
62611;BMP280;48683;48.084;17.272;2022-08-05T09:15:56;100043.53;;;31.85
62611;BMP280;48683;48.084;17.272;2022-08-05T09:18:22;100044.06;;;31.97
62611;BMP280;48683;48.084;17.272;2022-08-05T09:20:47;100037.59;;;32.28
62611;BMP280;48683;48.084;17.272;2022-08-05T09:23:16;100026.63;;;32.43
62611;BMP280;48683;48.084;17.272;2022-08-05T09:25:43;100031.81;;;32.60
62611;BMP280;48683;48.084;17.272;2022-08-05T09:30:42;100037.09;;;32.71
62611;BMP280;48683;48.084;17.272;2022-08-05T09:33:08;100034.38;;;32.79
62611;BMP280;48683;48.084;17.272;2022-08-05T09:35:34;100030.38;;;32.67
62611;BMP280;48683;48.084;17.272;2022-08-05T09:37:59;100023.88;;;32.85
62611;BMP280;48683;48.084;17.272;2022-08-05T09:42:54;100036.66;;;33.09
62611;BMP280;48683;48.084;17.272;2022-08-05T09:45:19;100029.59;;;33.08
62611;BMP280;48683;48.084;17.272;2022-08-05T09:47:44;100026.34;;;33.17
62611;BMP280;48683;48.084;17.272;2022-08-05T09:50:10;100024.38;;;33.25
62611;BMP280;48683;48.084;17.272;2022-08-05T09:52:35;100029.56;;;33.28
62611;BMP280;48683;48.084;17.272;2022-08-05T10:00:17;100022.59;;;33.42
62611;BMP280;48683;48.084;17.272;2022-08-05T10:02:48;100026.13;;;33.71
62611;BMP280;48683;48.084;17.272;2022-08-05T10:05:18;100011.78;;;33.31
62611;BMP280;48683;48.084;17.272;2022-08-05T10:10:11;100015.03;;;33.51
62611;BMP280;48683;48.084;17.272;2022-08-05T10:12:40;100022.78;;;33.65
62611;BMP280;48683;48.084;17.272;2022-08-05T10:15:36;100016.66;;;33.38
62611;BMP280;48683;48.084;17.272;2022-08-05T10:20:27;100009.88;;;33.91
62611;BMP280;48683;48.084;17.272;2022-08-05T10:22:53;100010.84;;;34.08
62611;BMP280;48683;48.084;17.272;2022-08-05T10:25:18;100020.31;;;34.13
62611;BMP280;48683;48.084;17.272;2022-08-05T10:27:45;100014.53;;;33.96
62611;BMP280;48683;48.084;17.272;2022-08-05T10:30:11;100020.94;;;34.34
62611;BMP280;48683;48.084;17.272;2022-08-05T10:32:36;100005.91;;;34.29
62611;BMP280;48683;48.084;17.272;2022-08-05T10:35:01;100001.47;;;34.42
62611;BMP280;48683;48.084;17.272;2022-08-05T10:37:28;99999.59;;;34.29
62611;BMP280;48683;48.084;17.272;2022-08-05T10:39:55;100005.56;;;34.48
62611;BMP280;48683;48.084;17.272;2022-08-05T10:42:22;99989.97;;;34.60
62611;BMP280;48683;48.084;17.272;2022-08-05T10:44:50;99992.75;;;34.60
62611;BMP280;48683;48.084;17.272;2022-08-05T10:47:18;99995.75;;;34.70
62611;BMP280;48683;48.084;17.272;2022-08-05T10:50:00;99991.09;;;34.72
62611;BMP280;48683;48.084;17.272;2022-08-05T10:52:39;99991.63;;;34.63
62611;BMP280;48683;48.084;17.272;2022-08-05T10:55:07;99989.78;;;34.43
62611;BMP280;48683;48.084;17.272;2022-08-05T10:57:34;99994.75;;;34.29
62611;BMP280;48683;48.084;17.272;2022-08-05T11:00:11;99991.44;;;34.61
62611;BMP280;48683;48.084;17.272;2022-08-05T11:02:37;99973.63;;;34.72
62611;BMP280;48683;48.084;17.272;2022-08-05T11:05:03;99976.22;;;34.93
62611;BMP280;48683;48.084;17.272;2022-08-05T11:07:29;99968.56;;;35.08
62611;BMP280;48683;48.084;17.272;2022-08-05T11:09:55;99967.81;;;35.15
62611;BMP280;48683;48.084;17.272;2022-08-05T11:17:46;99973.78;;;35.19
62611;BMP280;48683;48.084;17.272;2022-08-05T11:26:07;99973.38;;;35.23
62611;BMP280;48683;48.084;17.272;2022-08-05T11:35:53;99972.31;;;35.58
62611;BMP280;48683;48.084;17.272;2022-08-05T11:44:03;99970.59;;;35.78
62611;BMP280;48683;48.084;17.272;2022-08-05T11:46:52;99975.22;;;35.83
62611;BMP280;48683;48.084;17.272;2022-08-05T11:49:20;99968.75;;;35.73
62611;BMP280;48683;48.084;17.272;2022-08-05T11:51:48;99966.44;;;35.87
62611;BMP280;48683;48.084;17.272;2022-08-05T11:54:25;99974.09;;;35.86
62611;BMP280;48683;48.084;17.272;2022-08-05T11:56:53;99965.28;;;35.97
62611;BMP280;48683;48.084;17.272;2022-08-05T11:59:28;99959.84;;;35.99
62611;BMP280;48683;48.084;17.272;2022-08-05T12:02:02;99950.56;;;35.97
62611;BMP280;48683;48.084;17.272;2022-08-05T12:04:43;99950.91;;;36.01
62611;BMP280;48683;48.084;17.272;2022-08-05T12:07:10;99959.44;;;35.78
62611;BMP280;48683;48.084;17.272;2022-08-05T12:09:38;99966.00;;;35.98
62611;BMP280;48683;48.084;17.272;2022-08-05T12:13:29;99966.81;;;35.91
62611;BMP280;48683;48.084;17.272;2022-08-05T12:15:54;99954.69;;;35.88
62611;BMP280;48683;48.084;17.272;2022-08-05T12:18:30;99947.69;;;35.80
62611;BMP280;48683;48.084;17.272;2022-08-05T12:21:08;99951.69;;;35.94
62611;BMP280;48683;48.084;17.272;2022-08-05T12:23:34;99952.94;;;36.33
62611;BMP280;48683;48.084;17.272;2022-08-05T12:25:59;99941.44;;;36.29
62611;BMP280;48683;48.084;17.272;2022-08-05T12:28:35;99945.25;;;36.41
62611;BMP280;48683;48.084;17.272;2022-08-05T12:31:01;99935.91;;;36.46
62611;BMP280;48683;48.084;17.272;2022-08-05T12:33:27;99938.97;;;36.33
62611;BMP280;48683;48.084;17.272;2022-08-05T12:35:54;99940.00;;;36.45
62611;BMP280;48683;48.084;17.272;2022-08-05T12:38:21;99936.25;;;36.25
62611;BMP280;48683;48.084;17.272;2022-08-05T12:40:47;99933.81;;;36.29
62611;BMP280;48683;48.084;17.272;2022-08-05T12:43:12;99928.97;;;36.47
62611;BMP280;48683;48.084;17.272;2022-08-05T12:45:49;99930.59;;;36.33
62611;BMP280;48683;48.084;17.272;2022-08-05T12:48:15;99928.09;;;36.44
62611;BMP280;48683;48.084;17.272;2022-08-05T12:50:40;99912.75;;;36.28
62611;BMP280;48683;48.084;17.272;2022-08-05T12:53:06;99922.72;;;36.39
62611;BMP280;48683;48.084;17.272;2022-08-05T12:55:32;99925.63;;;36.48
62611;BMP280;48683;48.084;17.272;2022-08-05T12:57:58;99930.13;;;36.69
62611;BMP280;48683;48.084;17.272;2022-08-05T13:00:25;99927.97;;;36.35
62611;BMP280;48683;48.084;17.272;2022-08-05T13:02:51;99928.72;;;36.60
62611;BMP280;48683;48.084;17.272;2022-08-05T13:05:17;99922.16;;;36.65
62611;BMP280;48683;48.084;17.272;2022-08-05T13:07:44;99920.19;;;36.92
62611;BMP280;48683;48.084;17.272;2022-08-05T13:10:12;99932.47;;;37.14
62611;BMP280;48683;48.084;17.272;2022-08-05T13:12:39;99927.03;;;37.16
62611;BMP280;48683;48.084;17.272;2022-08-05T13:15:05;99921.59;;;37.18
62611;BMP280;48683;48.084;17.272;2022-08-05T13:17:33;99914.94;;;36.96
62611;BMP280;48683;48.084;17.272;2022-08-05T13:20:07;99913.34;;;37.03
62611;BMP280;48683;48.084;17.272;2022-08-05T13:22:35;99904.41;;;37.22
62611;BMP280;48683;48.084;17.272;2022-08-05T13:25:03;99906.97;;;37.10
62611;BMP280;48683;48.084;17.272;2022-08-05T13:27:32;99901.84;;;37.16
62611;BMP280;48683;48.084;17.272;2022-08-05T13:29:58;99905.81;;;37.13
62611;BMP280;48683;48.084;17.272;2022-08-05T13:32:24;99897.41;;;37.30
62611;BMP280;48683;48.084;17.272;2022-08-05T13:34:50;99894.84;;;37.25
62611;BMP280;48683;48.084;17.272;2022-08-05T13:37:20;99884.81;;;37.22
62611;BMP280;48683;48.084;17.272;2022-08-05T13:39:46;99891.16;;;37.22
62611;BMP280;48683;48.084;17.272;2022-08-05T13:42:12;99895.81;;;37.37
62611;BMP280;48683;48.084;17.272;2022-08-05T13:44:38;99886.09;;;37.38
62611;BMP280;48683;48.084;17.272;2022-08-05T13:47:03;99889.63;;;37.55
62611;BMP280;48683;48.084;17.272;2022-08-05T13:49:29;99886.88;;;37.21
62611;BMP280;48683;48.084;17.272;2022-08-05T13:51:54;99882.75;;;37.22
62611;BMP280;48683;48.084;17.272;2022-08-05T13:54:20;99877.81;;;37.30
62611;BMP280;48683;48.084;17.272;2022-08-05T13:56:45;99880.22;;;37.43
62611;BMP280;48683;48.084;17.272;2022-08-05T13:59:11;99880.75;;;37.49
62611;BMP280;48683;48.084;17.272;2022-08-05T14:01:36;99876.31;;;37.29
62611;BMP280;48683;48.084;17.272;2022-08-05T14:04:02;99880.41;;;37.45
62611;BMP280;48683;48.084;17.272;2022-08-05T14:06:46;99869.34;;;37.47
62611;BMP280;48683;48.084;17.272;2022-08-05T14:09:12;99866.84;;;37.42
62611;BMP280;48683;48.084;17.272;2022-08-05T14:11:37;99859.03;;;37.67
62611;BMP280;48683;48.084;17.272;2022-08-05T14:14:08;99867.09;;;37.90
62611;BMP280;48683;48.084;17.272;2022-08-05T14:16:33;99857.22;;;37.89
62611;BMP280;48683;48.084;17.272;2022-08-05T14:18:59;99846.88;;;37.55
62611;BMP280;48683;48.084;17.272;2022-08-05T14:21:25;99844.38;;;37.49
62611;BMP280;48683;48.084;17.272;2022-08-05T14:23:50;99827.59;;;37.49
62611;BMP280;48683;48.084;17.272;2022-08-05T14:26:15;99844.16;;;37.65
62611;BMP280;48683;48.084;17.272;2022-08-05T14:28:41;99838.63;;;37.84
62611;BMP280;48683;48.084;17.272;2022-08-05T14:31:07;99845.31;;;37.62
62611;BMP280;48683;48.084;17.272;2022-08-05T14:33:32;99843.28;;;37.72
62611;BMP280;48683;48.084;17.272;2022-08-05T14:35:58;99841.41;;;37.74
62611;BMP280;48683;48.084;17.272;2022-08-05T14:38:24;99831.13;;;37.50
62611;BMP280;48683;48.084;17.272;2022-08-05T14:40:50;99833.47;;;37.27